Time;durP1;ratioP1;P1;durP2;ratioP2;P2;SDS_P1;SDS_P2;PMS_P1;PMS_P2;Temp;Humidity;BMP_temperature;BMP_pressure;BME280_temperature;BME280_humidity;BME280_pressure;Samples;Min_cycle;Max_cycle;Signal;HPM_P1;HPM_P2
2023/09/09 00:02:03;;;;;;;9.95;5.10;;;19.40;64.40;;;;;;5084925;28;20020;-61
2023/09/09 00:04:28;;;;;;;8.05;5.15;;;19.40;64.40;;;;;;5083440;28;20054;-62
2023/09/09 00:06:56;;;;;;;10.90;5.18;;;19.40;64.40;;;;;;5060479;28;20188;-62
2023/09/09 00:09:21;;;;;;;7.45;5.03;;;19.30;64.50;;;;;;5099320;28;20032;-61
2023/09/09 00:11:47;;;;;;;10.38;5.10;;;19.30;64.50;;;;;;5105227;27;20355;-61
2023/09/09 00:14:13;;;;;;;8.05;5.07;;;19.20;64.60;;;;;;5100835;28;20035;-61
2023/09/09 00:16:38;;;;;;;9.20;5.15;;;19.20;64.60;;;;;;5102795;28;20351;-60
2023/09/09 00:19:05;;;;;;;7.80;4.65;;;19.20;64.60;;;;;;5101750;28;20316;-61
2023/09/09 00:21:30;;;;;;;8.63;5.22;;;19.20;64.70;;;;;;5077456;28;20517;-60
2023/09/09 00:23:56;;;;;;;6.85;5.03;;;19.10;64.60;;;;;;5101830;27;20045;-61
2023/09/09 00:26:22;;;;;;;5.40;4.57;;;19.10;64.60;;;;;;5104392;27;20034;-61
2023/09/09 00:28:48;;;;;;;7.35;4.88;;;19.10;64.70;;;;;;5088589;27;20028;-61
2023/09/09 00:31:13;;;;;;;7.47;4.72;;;19.10;64.90;;;;;;5105643;27;20084;-60
2023/09/09 00:33:39;;;;;;;7.07;4.80;;;19.10;64.90;;;;;;5101134;28;20028;-61
2023/09/09 00:36:06;;;;;;;5.53;4.63;;;19.00;65.00;;;;;;5098752;27;20418;-62
2023/09/09 00:38:31;;;;;;;8.32;5.07;;;19.00;65.00;;;;;;5103042;28;20080;-60
2023/09/09 00:41:29;;;;;;;8.20;4.70;;;19.00;65.20;;;;;;5083284;28;20028;-61
2023/09/09 00:43:55;;;;;;;6.82;4.85;;;19.00;66.30;;;;;;5056671;28;20519;-60
2023/09/09 00:46:22;;;;;;;8.10;4.90;;;18.90;64.90;;;;;;4968589;28;20048;-60
2023/09/09 00:48:47;;;;;;;6.90;4.82;;;18.90;65.10;;;;;;5058766;28;20450;-60
2023/09/09 00:51:13;;;;;;;6.43;4.45;;;18.90;65.20;;;;;;5056304;28;20514;-61
2023/09/09 00:53:40;;;;;;;6.05;4.72;;;18.90;65.30;;;;;;5043216;28;20047;-61
2023/09/09 00:56:06;;;;;;;10.60;5.22;;;18.90;65.50;;;;;;5054396;28;20032;-61
2023/09/09 00:58:32;;;;;;;8.18;4.50;;;18.80;65.40;;;;;;5058477;28;20391;-60
2023/09/09 01:00:58;;;;;;;8.85;4.90;;;18.80;65.40;;;;;;5057056;28;20064;-61
2023/09/09 01:03:24;;;;;;;14.60;5.28;;;18.80;66.20;;;;;;5049096;28;20206;-61
2023/09/09 01:05:50;;;;;;;8.43;5.10;;;18.80;65.70;;;;;;5064754;28;20041;-60
2023/09/09 01:08:29;;;;;;;7.43;5.00;;;18.70;65.70;;;;;;5073441;28;20056;-60
2023/09/09 01:10:55;;;;;;;9.68;5.20;;;18.70;66.50;;;;;;5076649;28;20414;-60
2023/09/09 01:13:21;;;;;;;6.10;4.93;;;18.70;65.90;;;;;;5080020;28;20066;-61
2023/09/09 01:15:49;;;;;;;8.70;5.30;;;18.70;66.00;;;;;;5084639;28;20249;-61
2023/09/09 01:18:17;;;;;;;8.82;4.65;;;18.70;66.20;;;;;;5078988;28;20546;-62
2023/09/09 01:20:49;;;;;;;8.68;5.40;;;18.60;66.00;;;;;;5107104;27;20036;-61
2023/09/09 01:23:14;;;;;;;7.15;5.53;;;18.60;66.20;;;;;;5099366;27;20027;-60
2023/09/09 01:25:40;;;;;;;7.20;5.15;;;18.60;66.10;;;;;;5104844;27;20036;-60
2023/09/09 01:28:06;;;;;;;7.60;4.88;;;18.60;66.10;;;;;;5104951;27;20027;-60
2023/09/09 01:30:31;;;;;;;8.30;4.60;;;18.60;66.10;;;;;;5098848;27;20725;-60
2023/09/09 01:32:57;;;;;;;6.25;5.00;;;18.60;66.10;;;;;;5103505;27;20055;-61
2023/09/09 01:35:23;;;;;;;7.78;5.25;;;18.50;66.10;;;;;;5096663;27;20102;-62
2023/09/09 01:37:49;;;;;;;6.20;5.18;;;18.50;66.30;;;;;;5101315;27;20028;-60
2023/09/09 01:40:15;;;;;;;6.53;5.10;;;18.50;66.30;;;;;;5100143;28;20075;-60
2023/09/09 01:42:41;;;;;;;6.20;4.80;;;18.50;66.20;;;;;;5101263;27;20023;-61
2023/09/09 01:45:07;;;;;;;11.30;4.85;;;18.50;66.00;;;;;;5108093;27;20022;-60
2023/09/09 01:47:33;;;;;;;9.57;4.78;;;18.40;66.20;;;;;;5099041;27;20110;-60
2023/09/09 01:49:58;;;;;;;6.40;4.80;;;18.40;66.30;;;;;;5107706;27;20114;-61
2023/09/09 01:52:24;;;;;;;8.40;5.22;;;18.40;66.40;;;;;;5105469;27;20047;-61
2023/09/09 01:54:50;;;;;;;9.30;4.57;;;18.40;66.30;;;;;;5101532;27;20032;-61
2023/09/09 01:57:19;;;;;;;7.07;5.22;;;18.40;66.40;;;;;;5106797;27;20027;-61
2023/09/09 01:59:45;;;;;;;5.93;4.93;;;18.40;66.40;;;;;;5101492;27;20055;-60
2023/09/09 02:02:15;;;;;;;5.68;4.85;;;18.30;66.20;;;;;;5101725;28;20540;-60
2023/09/09 02:04:41;;;;;;;9.18;4.85;;;18.30;66.10;;;;;;5100156;28;20027;-61
2023/09/09 02:07:07;;;;;;;7.07;5.00;;;18.30;66.20;;;;;;5100170;28;20052;-60
2023/09/09 02:09:33;;;;;;;7.13;5.25;;;18.30;66.30;;;;;;5081857;28;20039;-61
2023/09/09 02:11:58;;;;;;;7.05;5.28;;;18.30;66.30;;;;;;5082756;28;20069;-61
2023/09/09 02:14:24;;;;;;;8.52;4.95;;;18.20;66.40;;;;;;5079762;28;20149;-60
2023/09/09 02:16:50;;;;;;;5.32;4.72;;;18.20;66.60;;;;;;5085994;28;20075;-63
2023/09/09 02:19:15;;;;;;;6.63;4.53;;;18.20;66.60;;;;;;5086798;28;20049;-61
2023/09/09 02:21:41;;;;;;;8.35;4.85;;;18.20;66.60;;;;;;5076053;28;20101;-61
2023/09/09 02:24:07;;;;;;;11.43;5.47;;;18.10;66.70;;;;;;5084327;28;20039;-61
2023/09/09 02:26:32;;;;;;;6.90;5.13;;;18.10;66.90;;;;;;5081367;28;20029;-60
2023/09/09 02:28:58;;;;;;;7.47;5.40;;;18.10;67.00;;;;;;5075522;28;20016;-60
2023/09/09 02:31:24;;;;;;;7.15;5.03;;;18.10;67.20;;;;;;5081098;28;20020;-61
2023/09/09 02:33:49;;;;;;;6.13;5.28;;;18.00;67.20;;;;;;5079312;28;20046;-61
2023/09/09 02:36:15;;;;;;;10.13;5.85;;;18.00;67.30;;;;;;5070808;28;20125;-61
2023/09/09 02:38:41;;;;;;;12.05;5.15;;;18.00;67.40;;;;;;5075314;28;20025;-60
2023/09/09 02:41:06;;;;;;;8.35;5.40;;;18.00;67.40;;;;;;5079617;28;20031;-60
2023/09/09 02:43:32;;;;;;;7.63;5.03;;;18.00;67.40;;;;;;5079598;28;20074;-60
2023/09/09 02:45:58;;;;;;;7.90;5.28;;;18.00;67.50;;;;;;5079147;28;20024;-61
2023/09/09 02:48:23;;;;;;;7.00;5.38;;;18.00;67.50;;;;;;5079465;28;20032;-61
2023/09/09 02:50:49;;;;;;;8.35;5.13;;;18.00;67.60;;;;;;5071176;28;20040;-61
2023/09/09 02:53:14;;;;;;;6.40;5.00;;;18.00;67.60;;;;;;5075897;28;20039;-62
2023/09/09 02:55:40;;;;;;;7.70;5.13;;;17.90;67.60;;;;;;5076550;28;20512;-62
2023/09/09 02:58:06;;;;;;;9.00;5.55;;;17.90;67.70;;;;;;5076812;28;20482;-62
2023/09/09 03:00:32;;;;;;;6.22;4.60;;;17.90;67.70;;;;;;5080207;28;20475;-60
2023/09/09 03:02:58;;;;;;;7.60;4.65;;;17.90;67.70;;;;;;5078391;28;20039;-60
2023/09/09 03:05:23;;;;;;;9.65;5.35;;;17.90;67.80;;;;;;5076030;28;20580;-61
2023/09/09 03:07:49;;;;;;;9.20;5.32;;;17.90;67.90;;;;;;5088596;28;20508;-61
2023/09/09 03:10:15;;;;;;;6.68;4.80;;;17.80;67.80;;;;;;5088462;28;20485;-62
2023/09/09 03:12:41;;;;;;;7.10;5.57;;;17.80;67.80;;;;;;5102834;28;20034;-60
2023/09/09 03:15:07;;;;;;;8.10;5.20;;;17.80;68.00;;;;;;5105034;28;20493;-62
2023/09/09 03:17:33;;;;;;;7.50;5.38;;;17.80;68.00;;;;;;5086384;28;20054;-62
2023/09/09 03:19:58;;;;;;;5.72;4.68;;;17.80;68.00;;;;;;5108401;28;20024;-61
2023/09/09 03:22:24;;;;;;;9.48;4.90;;;17.70;68.00;;;;;;5102385;28;20039;-61
2023/09/09 03:24:50;;;;;;;11.55;5.68;;;17.70;68.00;;;;;;5101673;28;20093;-61
2023/09/09 03:27:16;;;;;;;11.65;6.40;;;17.70;68.10;;;;;;5109359;28;20031;-61
2023/09/09 03:29:42;;;;;;;7.55;5.65;;;17.70;68.20;;;;;;5112891;28;20040;-61
2023/09/09 03:32:08;;;;;;;7.70;5.50;;;17.70;68.30;;;;;;5104412;28;20043;-61
2023/09/09 03:34:33;;;;;;;8.55;5.28;;;17.70;68.30;;;;;;5099367;28;20420;-59
2023/09/09 03:36:59;;;;;;;9.13;5.28;;;17.60;68.20;;;;;;5105933;28;20073;-60
2023/09/09 03:39:25;;;;;;;9.77;5.25;;;17.60;68.20;;;;;;5100280;28;20051;-61
2023/09/09 03:41:50;;;;;;;7.82;4.70;;;17.60;68.20;;;;;;5100006;28;20438;-61
2023/09/09 03:44:16;;;;;;;5.95;5.15;;;17.60;68.20;;;;;;5084311;28;20023;-60
2023/09/09 03:46:42;;;;;;;6.95;5.30;;;17.60;68.00;;;;;;5036383;28;20038;-60
2023/09/09 03:49:07;;;;;;;6.40;5.60;;;17.60;68.00;;;;;;5101349;27;20066;-61
2023/09/09 03:51:33;;;;;;;7.82;5.15;;;17.60;68.00;;;;;;5108490;27;20051;-60
2023/09/09 03:54:00;;;;;;;8.80;5.05;;;17.50;67.80;;;;;;5102070;27;20428;-60
2023/09/09 03:56:26;;;;;;;7.00;5.28;;;17.50;67.70;;;;;;5105164;27;20032;-61
2023/09/09 03:58:51;;;;;;;8.98;5.25;;;17.50;68.70;;;;;;5108491;27;20080;-60
2023/09/09 04:01:18;;;;;;;9.32;5.53;;;17.50;67.80;;;;;;5106202;27;20063;-60
2023/09/09 04:03:43;;;;;;;6.93;5.75;;;17.40;67.70;;;;;;5104802;27;20058;-60
2023/09/09 04:06:11;;;;;;;7.43;5.38;;;17.40;67.80;;;;;;5106911;27;20265;-60
2023/09/09 04:08:38;;;;;;;8.18;5.55;;;17.40;68.00;;;;;;5100612;27;20048;-60
2023/09/09 04:11:04;;;;;;;7.70;5.72;;;17.40;68.20;;;;;;5105592;27;20032;-60
2023/09/09 04:13:30;;;;;;;13.70;5.40;;;17.30;68.10;;;;;;5101892;27;20016;-60
2023/09/09 04:15:57;;;;;;;7.95;5.75;;;17.30;68.10;;;;;;5102100;27;20070;-60
2023/09/09 04:18:24;;;;;;;8.35;5.40;;;17.30;68.30;;;;;;5107878;27;20027;-60
2023/09/09 04:20:50;;;;;;;6.15;5.32;;;17.30;68.40;;;;;;5110630;27;20035;-60
2023/09/09 04:23:17;;;;;;;7.93;5.05;;;17.30;68.30;;;;;;5105742;27;20091;-61
2023/09/09 04:25:46;;;;;;;7.18;5.65;;;17.30;68.30;;;;;;5108607;27;20485;-60
2023/09/09 04:28:13;;;;;;;7.00;5.35;;;17.20;68.40;;;;;;5102157;28;20034;-60
2023/09/09 04:30:40;;;;;;;6.25;5.13;;;17.20;68.40;;;;;;5108695;27;20103;-61
2023/09/09 04:33:07;;;;;;;7.82;5.47;;;17.20;68.50;;;;;;5082046;28;20039;-61
2023/09/09 04:35:33;;;;;;;9.18;5.60;;;17.20;68.50;;;;;;5104653;27;20019;-61
2023/09/09 04:37:59;;;;;;;8.48;5.65;;;17.20;68.60;;;;;;5107373;27;20043;-60
2023/09/09 04:40:25;;;;;;;7.32;5.70;;;17.20;68.70;;;;;;5103354;28;20074;-60
2023/09/09 04:42:51;;;;;;;9.05;5.57;;;17.10;68.60;;;;;;5088267;28;20101;-60
2023/09/09 04:45:17;;;;;;;7.88;6.30;;;17.10;68.60;;;;;;5103226;27;20027;-60
2023/09/09 04:47:43;;;;;;;10.93;5.82;;;17.10;68.70;;;;;;5115429;27;20047;-60
2023/09/09 04:50:09;;;;;;;11.18;6.10;;;17.10;68.70;;;;;;5105996;27;20074;-60
2023/09/09 04:52:34;;;;;;;6.38;5.40;;;17.10;68.50;;;;;;5105168;27;20031;-61
2023/09/09 04:55:00;;;;;;;8.63;5.28;;;17.10;68.30;;;;;;5109425;27;20042;-60
2023/09/09 04:57:25;;;;;;;6.75;5.28;;;17.10;68.20;;;;;;5104373;27;20027;-60
2023/09/09 04:59:51;;;;;;;8.32;5.32;;;17.00;68.10;;;;;;5099899;28;20395;-61
2023/09/09 05:02:17;;;;;;;8.50;5.40;;;17.00;68.10;;;;;;5095645;28;20508;-61
2023/09/09 05:04:42;;;;;;;8.20;5.68;;;17.00;68.10;;;;;;5102177;27;20031;-60
2023/09/09 05:07:09;;;;;;;7.32;5.38;;;17.00;68.30;;;;;;5102340;28;20048;-60
2023/09/09 05:09:35;;;;;;;8.75;5.82;;;17.00;68.40;;;;;;5100138;28;20040;-60
2023/09/09 05:12:01;;;;;;;7.30;5.43;;;16.90;68.40;;;;;;5100662;28;20080;-60
2023/09/09 05:14:27;;;;;;;9.65;5.47;;;16.90;68.60;;;;;;5099162;28;20028;-60
2023/09/09 05:16:52;;;;;;;5.70;4.82;;;16.90;68.70;;;;;;5099654;28;20108;-60
2023/09/09 05:19:18;;;;;;;8.40;5.82;;;16.90;68.70;;;;;;5106154;28;20023;-60
2023/09/09 05:21:43;;;;;;;6.93;5.13;;;16.90;68.80;;;;;;5093492;27;20031;-60
2023/09/09 05:24:09;;;;;;;8.50;5.63;;;16.90;68.80;;;;;;5098185;28;20035;-60
2023/09/09 05:26:35;;;;;;;6.40;5.30;;;16.90;69.60;;;;;;5101188;27;20027;-59
2023/09/09 05:29:02;;;;;;;9.50;5.40;;;17.00;69.00;;;;;;5111857;27;20050;-61
2023/09/09 05:31:27;;;;;;;11.85;5.85;;;17.00;69.20;;;;;;5104523;27;20047;-61
2023/09/09 05:33:53;;;;;;;7.05;5.53;;;17.00;69.30;;;;;;5102667;28;20483;-60
2023/09/09 05:36:19;;;;;;;9.20;5.50;;;17.00;69.20;;;;;;5083434;28;20374;-61
2023/09/09 05:38:44;;;;;;;6.68;5.15;;;17.10;69.20;;;;;;5100784;28;20028;-60
2023/09/09 05:41:10;;;;;;;8.90;5.78;;;17.10;69.20;;;;;;5107001;27;20039;-59
2023/09/09 05:43:36;;;;;;;8.65;5.25;;;17.10;69.30;;;;;;5102161;28;20027;-59
2023/09/09 05:46:01;;;;;;;12.23;5.63;;;17.20;69.50;;;;;;5105880;28;20038;-61
2023/09/09 05:48:27;;;;;;;7.10;5.57;;;17.20;69.60;;;;;;5087654;28;20023;-61
2023/09/09 05:50:55;;;;;;;8.77;6.22;;;17.30;69.60;;;;;;5099885;27;20055;-60
2023/09/09 05:53:21;;;;;;;7.00;5.55;;;17.40;69.60;;;;;;5098213;28;20027;-60
2023/09/09 05:55:47;;;;;;;9.50;5.68;;;17.50;69.50;;;;;;5103323;28;20022;-60
2023/09/09 05:58:13;;;;;;;8.15;5.38;;;17.50;69.50;;;;;;5102819;27;20024;-60
2023/09/09 06:00:38;;;;;;;7.40;5.68;;;17.60;69.60;;;;;;5102487;27;20096;-60
2023/09/09 06:03:04;;;;;;;7.25;5.82;;;17.70;69.50;;;;;;5104637;27;20034;-61
2023/09/09 06:05:30;;;;;;;9.50;5.50;;;17.80;69.40;;;;;;5102892;27;21376;-60
2023/09/09 06:07:57;;;;;;;6.35;5.22;;;17.90;69.50;;;;;;5083885;28;20314;-61
2023/09/09 06:10:22;;;;;;;8.90;5.05;;;18.00;69.40;;;;;;5105090;27;20485;-61
2023/09/09 06:12:49;;;;;;;6.82;5.15;;;18.10;69.30;;;;;;5102917;28;20027;-61
2023/09/09 06:15:15;;;;;;;7.65;5.35;;;18.20;69.40;;;;;;5106347;27;20080;-61
2023/09/09 06:17:41;;;;;;;9.15;5.53;;;18.30;69.40;;;;;;5100882;28;20070;-60
2023/09/09 06:20:07;;;;;;;11.35;5.45;;;18.40;69.40;;;;;;5108130;27;20028;-61
2023/09/09 06:22:34;;;;;;;9.02;5.53;;;18.50;69.40;;;;;;5100109;27;20050;-60
2023/09/09 06:25:00;;;;;;;6.57;5.35;;;18.60;69.30;;;;;;5107824;27;20051;-60
2023/09/09 06:27:26;;;;;;;8.15;5.45;;;18.70;69.20;;;;;;5099842;28;20486;-61
2023/09/09 06:29:51;;;;;;;7.97;5.15;;;18.70;68.90;;;;;;5103893;28;20043;-61
2023/09/09 06:32:18;;;;;;;13.10;6.10;;;18.90;68.90;;;;;;5098923;27;20024;-61
2023/09/09 06:34:44;;;;;;;8.68;5.35;;;19.00;68.80;;;;;;5104367;27;20047;-60
2023/09/09 06:37:10;;;;;;;10.13;5.85;;;19.10;68.60;;;;;;5101436;28;20036;-61
2023/09/09 06:39:36;;;;;;;10.93;5.90;;;19.20;68.30;;;;;;5091763;28;20320;-61
2023/09/09 06:42:02;;;;;;;12.85;5.68;;;19.30;68.20;;;;;;5103670;28;20545;-61
2023/09/09 06:44:28;;;;;;;12.82;5.43;;;19.40;68.00;;;;;;5103251;27;20058;-61
2023/09/09 06:46:53;;;;;;;14.90;6.15;;;19.50;67.90;;;;;;5009172;27;20096;-61
2023/09/09 06:49:19;;;;;;;12.30;5.78;;;19.60;67.90;;;;;;5102194;27;20482;-60
2023/09/09 06:51:45;;;;;;;11.60;5.65;;;19.70;67.80;;;;;;5102270;28;20027;-61
2023/09/09 06:54:11;;;;;;;8.88;5.88;;;19.80;67.80;;;;;;5098960;28;20076;-62
2023/09/09 06:56:36;;;;;;;7.88;6.00;;;20.00;67.70;;;;;;5099511;28;20111;-60
2023/09/09 06:59:03;;;;;;;12.43;6.03;;;20.10;67.50;;;;;;5101288;28;20036;-62
2023/09/09 07:01:29;;;;;;;10.70;6.10;;;20.20;67.40;;;;;;5100367;28;20016;-61
2023/09/09 07:03:55;;;;;;;12.10;5.93;;;20.30;67.30;;;;;;5104447;28;20088;-60
2023/09/09 07:06:20;;;;;;;9.48;6.53;;;20.40;67.20;;;;;;5100271;28;20506;-60
2023/09/09 07:08:47;;;;;;;10.88;5.90;;;20.60;67.10;;;;;;5082559;28;20047;-61
2023/09/09 07:11:13;;;;;;;10.23;5.55;;;20.70;66.70;;;;;;5077017;28;20033;-61
2023/09/09 07:13:39;;;;;;;11.80;6.45;;;20.80;66.50;;;;;;5076661;28;20028;-60
2023/09/09 07:16:04;;;;;;;14.90;6.28;;;20.90;66.10;;;;;;5073880;28;20514;-60
2023/09/09 07:18:30;;;;;;;11.07;6.65;;;21.10;66.00;;;;;;5077041;28;20020;-61
2023/09/09 07:20:59;;;;;;;12.30;7.15;;;21.20;65.90;;;;;;5089988;28;20027;-61
2023/09/09 07:23:25;;;;;;;11.48;6.93;;;21.40;65.50;;;;;;5084425;28;20023;-62
2023/09/09 07:25:52;;;;;;;12.00;7.80;;;21.50;65.40;;;;;;5089292;28;20131;-60
2023/09/09 07:28:17;;;;;;;12.05;7.57;;;21.70;65.10;;;;;;5087270;28;20023;-61
2023/09/09 07:30:44;;;;;;;13.48;7.13;;;21.80;64.80;;;;;;5079399;28;20390;-61
2023/09/09 07:33:09;;;;;;;9.38;7.00;;;21.90;64.80;;;;;;5085181;28;20027;-61
2023/09/09 07:35:35;;;;;;;9.00;7.72;;;22.00;64.70;;;;;;5086431;28;20063;-60
2023/09/09 07:38:06;;;;;;;10.60;7.32;;;22.10;64.60;;;;;;5071903;28;20023;-61
2023/09/09 07:40:32;;;;;;;13.23;7.75;;;22.30;64.40;;;;;;5087732;28;20036;-62
2023/09/09 07:42:57;;;;;;;10.30;7.82;;;22.40;64.20;;;;;;5079752;28;20463;-60
2023/09/09 07:45:23;;;;;;;11.63;8.52;;;22.60;63.80;;;;;;5079023;28;20024;-62
2023/09/09 07:47:49;;;;;;;10.32;8.00;;;22.70;63.30;;;;;;5075955;28;20377;-61
2023/09/09 07:50:15;;;;;;;10.38;8.45;;;22.90;62.90;;;;;;5085165;28;20085;-62
2023/09/09 07:52:40;;;;;;;11.27;8.25;;;23.00;62.60;;;;;;5079622;28;20030;-62
2023/09/09 07:55:08;;;;;;;13.27;9.75;;;23.10;62.50;;;;;;5079554;28;20119;-61
2023/09/09 07:57:34;;;;;;;12.05;9.75;;;23.30;62.00;;;;;;5067026;28;20025;-61
2023/09/09 08:00:00;;;;;;;15.18;9.65;;;23.40;61.70;;;;;;5084461;28;20039;-61
2023/09/09 08:02:26;;;;;;;17.65;10.93;;;23.50;61.20;;;;;;5077665;28;20497;-61
2023/09/09 08:04:52;;;;;;;17.90;9.07;;;23.50;61.00;;;;;;5087310;28;20035;-61
2023/09/09 08:07:17;;;;;;;14.98;9.80;;;23.60;61.20;;;;;;5079046;28;20047;-61
2023/09/09 08:09:44;;;;;;;16.30;10.65;;;23.70;60.90;;;;;;5111666;27;20040;-63
2023/09/09 08:12:10;;;;;;;14.93;10.70;;;23.90;60.80;;;;;;5105873;27;20019;-62
2023/09/09 08:14:35;;;;;;;11.75;9.52;;;24.00;60.50;;;;;;5100160;28;20108;-62
2023/09/09 08:17:01;;;;;;;15.65;9.95;;;24.00;60.30;;;;;;5106252;27;20035;-60
2023/09/09 08:19:27;;;;;;;11.98;9.77;;;24.20;60.50;;;;;;5108476;27;20031;-61
2023/09/09 08:21:52;;;;;;;17.05;10.15;;;24.20;60.40;;;;;;5111757;27;20039;-62
2023/09/09 08:24:18;;;;;;;14.10;10.35;;;24.40;60.00;;;;;;5106803;27;20031;-61
2023/09/09 08:26:44;;;;;;;13.80;10.70;;;24.50;60.10;;;;;;5106875;27;20027;-61
2023/09/09 08:29:09;;;;;;;16.90;11.25;;;24.60;60.00;;;;;;5101359;28;20559;-62
2023/09/09 08:31:35;;;;;;;15.45;11.05;;;24.70;60.00;;;;;;5088554;27;20038;-62
2023/09/09 08:34:01;;;;;;;14.60;10.93;;;24.80;59.60;;;;;;5105967;27;20019;-61
2023/09/09 08:36:27;;;;;;;13.55;11.02;;;25.00;60.00;;;;;;5101179;27;20028;-61
2023/09/09 08:38:56;;;;;;;14.15;11.60;;;25.10;59.40;;;;;;5100626;28;20451;-61
2023/09/09 08:41:43;;;;;;;13.65;10.85;;;25.20;59.00;;;;;;5108693;27;20024;-61
2023/09/09 08:44:22;;;;;;;12.55;9.55;;;25.30;58.80;;;;;;5101691;27;20465;-61
2023/09/09 08:46:48;;;;;;;12.10;9.57;;;25.40;58.80;;;;;;5101504;27;20049;-62
2023/09/09 08:49:17;;;;;;;14.20;10.43;;;25.50;59.20;;;;;;5103388;27;20028;-62
2023/09/09 08:51:53;;;;;;;13.00;9.55;;;25.60;58.80;;;;;;5089986;28;20031;-62
2023/09/09 08:54:19;;;;;;;14.23;10.57;;;25.70;58.80;;;;;;5084407;27;20079;-61
2023/09/09 08:56:46;;;;;;;12.68;9.65;;;25.90;58.50;;;;;;5095088;27;20027;-61
2023/09/09 08:59:13;;;;;;;19.05;9.73;;;26.00;58.60;;;;;;5102500;27;20073;-61
2023/09/09 09:01:40;;;;;;;12.65;8.88;;;26.10;58.30;;;;;;5103606;27;20019;-61
2023/09/09 09:04:05;;;;;;;12.68;8.57;;;26.30;58.30;;;;;;5096276;27;20055;-63
2023/09/09 09:06:33;;;;;;;14.88;9.50;;;26.40;58.30;;;;;;5107394;27;20024;-61
2023/09/09 09:08:59;;;;;;;17.58;9.45;;;26.50;58.00;;;;;;5100837;27;20028;-61
2023/09/09 09:11:25;;;;;;;14.00;9.15;;;26.60;57.70;;;;;;5112725;27;20035;-62
2023/09/09 09:13:51;;;;;;;12.02;8.75;;;26.70;57.70;;;;;;5118011;27;20039;-61
2023/09/09 09:16:18;;;;;;;10.75;9.35;;;26.90;57.50;;;;;;5104017;27;20512;-60
2023/09/09 09:18:44;;;;;;;12.45;9.63;;;27.00;57.40;;;;;;5110882;27;20389;-61
2023/09/09 09:21:10;;;;;;;15.68;9.95;;;27.10;57.10;;;;;;5111315;27;20020;-61
2023/09/09 09:23:46;;;;;;;11.65;9.18;;;27.20;56.90;;;;;;5105966;27;20037;-63
2023/09/09 09:26:24;;;;;;;17.65;9.32;;;27.30;56.80;;;;;;5107619;27;20091;-62
2023/09/09 09:28:51;;;;;;;12.70;9.40;;;27.40;56.30;;;;;;5111049;27;20246;-61
2023/09/09 09:31:24;;;;;;;11.15;8.40;;;27.50;56.50;;;;;;5111951;27;20493;-62
2023/09/09 09:33:51;;;;;;;13.82;8.52;;;27.60;56.00;;;;;;5108190;27;20031;-62
2023/09/09 09:36:19;;;;;;;9.32;7.40;;;27.60;56.30;;;;;;5109081;27;20031;-61
2023/09/09 09:38:45;;;;;;;13.15;7.22;;;27.80;56.70;;;;;;5114741;27;20041;-62
2023/09/09 09:41:11;;;;;;;14.85;8.38;;;27.80;56.50;;;;;;5107302;27;20521;-62
2023/09/09 09:43:36;;;;;;;13.32;7.85;;;27.90;56.20;;;;;;5110374;27;20024;-61
2023/09/09 09:46:14;;;;;;;12.52;8.30;;;28.00;56.20;;;;;;5046342;27;20024;-63
2023/09/09 09:48:40;;;;;;;11.30;7.35;;;28.20;55.70;;;;;;5104970;27;20028;-63
2023/09/09 09:51:06;;;;;;;8.07;6.53;;;28.20;55.90;;;;;;5105428;28;20040;-62
2023/09/09 09:53:35;;;;;;;8.85;7.78;;;28.40;55.80;;;;;;5108158;27;20034;-62
2023/09/09 09:56:03;;;;;;;10.35;8.18;;;28.50;55.90;;;;;;5096365;27;20424;-62
2023/09/09 09:58:33;;;;;;;11.15;7.38;;;28.70;55.60;;;;;;5110007;27;20136;-62
2023/09/09 10:01:00;;;;;;;9.93;6.55;;;28.80;55.40;;;;;;5089519;28;20501;-61
2023/09/09 10:03:30;;;;;;;10.68;7.25;;;28.90;55.10;;;;;;5109316;27;20023;-62
2023/09/09 10:05:56;;;;;;;8.13;6.70;;;29.00;55.20;;;;;;5109557;27;20386;-62
2023/09/09 10:08:36;;;;;;;11.55;7.95;;;29.20;54.70;;;;;;5093648;28;20070;-63
2023/09/09 10:11:05;;;;;;;10.68;7.88;;;29.30;54.30;;;;;;5108790;27;20040;-62
2023/09/09 10:14:01;;;;;;;7.97;6.05;;;29.40;54.30;;;;;;5107521;27;20110;-62
2023/09/09 10:16:29;;;;;;;10.82;7.32;;;29.50;53.40;;;;;;5105775;27;20023;-63
2023/09/09 10:18:57;;;;;;;9.57;6.93;;;29.60;53.20;;;;;;5097764;27;20070;-63
2023/09/09 10:21:24;;;;;;;9.65;6.35;;;29.70;53.20;;;;;;5099527;27;20043;-64
2023/09/09 10:23:50;;;;;;;8.93;5.85;;;29.70;53.40;;;;;;5109411;27;20106;-62
2023/09/09 10:26:17;;;;;;;8.38;6.13;;;29.80;53.30;;;;;;5101295;27;20447;-63
2023/09/09 10:28:44;;;;;;;8.43;5.90;;;29.90;53.00;;;;;;5106805;27;20028;-62
2023/09/09 10:31:14;;;;;;;10.73;5.93;;;30.00;52.70;;;;;;5104328;27;20436;-62
2023/09/09 10:33:45;;;;;;;10.02;6.07;;;30.00;53.00;;;;;;5106060;27;20039;-62
2023/09/09 10:36:14;;;;;;;9.60;5.65;;;30.20;52.40;;;;;;5100772;27;20210;-63
2023/09/09 10:38:39;;;;;;;13.18;6.00;;;30.30;52.20;;;;;;5094711;27;20016;-63
2023/09/09 10:41:06;;;;;;;11.20;6.45;;;30.40;52.90;;;;;;5099278;27;20034;-62
2023/09/09 10:43:32;;;;;;;12.13;6.50;;;30.50;52.40;;;;;;5103587;27;20023;-63
2023/09/09 10:45:57;;;;;;;8.73;5.35;;;30.60;51.70;;;;;;5049485;27;20035;-63
2023/09/09 10:48:25;;;;;;;7.63;5.40;;;30.70;51.60;;;;;;5102810;28;20019;-64
2023/09/09 10:50:52;;;;;;;6.95;5.72;;;30.80;51.90;;;;;;5108234;27;20354;-63
2023/09/09 10:53:25;;;;;;;8.45;5.70;;;30.80;51.40;;;;;;5081630;28;20023;-63
2023/09/09 10:55:56;;;;;;;7.07;5.68;;;30.90;50.90;;;;;;5101297;28;20043;-63
2023/09/09 10:58:33;;;;;;;7.10;5.88;;;31.00;51.30;;;;;;5106446;27;20038;-62
2023/09/09 11:01:00;;;;;;;7.35;5.63;;;31.20;50.90;;;;;;5105345;28;20430;-63
2023/09/09 11:03:37;;;;;;;11.95;6.07;;;31.20;50.80;;;;;;5105068;28;20478;-62
2023/09/09 11:06:07;;;;;;;5.97;5.40;;;31.30;51.20;;;;;;5092146;28;20030;-63
2023/09/09 11:08:36;;;;;;;6.97;5.78;;;31.40;51.20;;;;;;5088261;28;20091;-62
2023/09/09 11:11:16;;;;;;;7.10;5.38;;;31.50;51.00;;;;;;5081241;28;20040;-62
2023/09/09 11:14:02;;;;;;;6.70;5.25;;;31.60;50.60;;;;;;5080698;28;20075;-63
2023/09/09 11:16:33;;;;;;;8.65;5.57;;;31.70;50.80;;;;;;5084757;28;20437;-63
2023/09/09 11:19:06;;;;;;;9.48;5.70;;;31.80;50.30;;;;;;5086695;28;20486;-64
2023/09/09 11:21:34;;;;;;;8.52;5.30;;;31.90;50.00;;;;;;5089867;28;20555;-62
2023/09/09 11:24:03;;;;;;;8.00;5.60;;;32.00;50.20;;;;;;5086493;28;20073;-63
2023/09/09 11:26:29;;;;;;;7.25;5.47;;;32.10;49.80;;;;;;5089874;28;20080;-64
2023/09/09 11:28:55;;;;;;;10.82;5.65;;;32.20;49.90;;;;;;5087525;28;20530;-63
2023/09/09 11:31:22;;;;;;;12.23;5.60;;;32.20;49.60;;;;;;5080851;28;20086;-63
2023/09/09 11:33:48;;;;;;;6.32;5.05;;;32.40;49.00;;;;;;5092443;28;20026;-63
2023/09/09 11:36:17;;;;;;;7.65;4.82;;;32.40;49.00;;;;;;5083682;28;20032;-64
2023/09/09 11:38:44;;;;;;;6.65;4.80;;;32.50;48.30;;;;;;5082128;28;20024;-62
2023/09/09 11:41:20;;;;;;;10.55;5.22;;;32.60;48.50;;;;;;5083301;28;20051;-64
2023/09/09 11:44:03;;;;;;;12.70;5.20;;;32.70;47.60;;;;;;5088412;28;20024;-64
2023/09/09 11:46:35;;;;;;;8.98;5.38;;;32.70;47.90;;;;;;5080057;28;20780;-64
2023/09/09 11:49:01;;;;;;;10.23;4.95;;;32.70;47.90;;;;;;5084840;28;20052;-63
2023/09/09 11:51:27;;;;;;;8.30;4.85;;;32.70;48.00;;;;;;5080190;28;20495;-63
2023/09/09 11:53:53;;;;;;;7.60;5.32;;;32.70;47.80;;;;;;5084463;28;20034;-63
2023/09/09 11:56:20;;;;;;;7.20;4.95;;;32.70;47.30;;;;;;5087633;28;20031;-63
2023/09/09 11:58:46;;;;;;;7.72;5.70;;;32.80;47.70;;;;;;5077448;28;20479;-63
2023/09/09 12:01:12;;;;;;;7.30;5.22;;;32.80;47.60;;;;;;5092945;28;20023;-63
2023/09/09 12:03:38;;;;;;;7.05;4.45;;;32.80;47.10;;;;;;5087831;28;20347;-64
2023/09/09 12:06:06;;;;;;;7.28;4.60;;;32.80;47.20;;;;;;5086196;28;20024;-63
2023/09/09 12:08:32;;;;;;;7.55;4.60;;;32.80;47.20;;;;;;5096052;28;20112;-63
2023/09/09 12:11:00;;;;;;;5.82;4.30;;;32.90;47.70;;;;;;5088249;28;20381;-63
2023/09/09 12:13:26;;;;;;;5.30;4.20;;;32.90;46.80;;;;;;5110505;27;20023;-62
2023/09/09 12:15:53;;;;;;;7.93;5.00;;;33.00;47.10;;;;;;5107300;27;20028;-65
2023/09/09 12:18:18;;;;;;;5.40;4.53;;;33.10;46.80;;;;;;5090355;27;20114;-62
2023/09/09 12:21:11;;;;;;;15.27;4.85;;;33.20;46.10;;;;;;5103465;27;20095;-64
2023/09/09 12:23:38;;;;;;;7.03;4.18;;;33.30;45.40;;;;;;5109755;27;20378;-64
2023/09/09 12:26:14;;;;;;;6.07;4.40;;;33.30;45.40;;;;;;5103638;28;20097;-62
2023/09/09 12:28:44;;;;;;;10.48;4.25;;;33.30;45.30;;;;;;5104286;27;20030;-63
2023/09/09 12:31:11;;;;;;;4.60;3.78;;;33.30;45.80;;;;;;5105340;27;20054;-64
2023/09/09 12:33:45;;;;;;;4.47;3.95;;;33.30;44.90;;;;;;5104416;28;20708;-64
2023/09/09 12:36:16;;;;;;;9.60;3.95;;;33.40;45.20;;;;;;5102169;27;20503;-64
2023/09/09 12:38:42;;;;;;;6.20;3.78;;;33.50;44.50;;;;;;5101348;27;20483;-64
2023/09/09 12:41:10;;;;;;;7.40;4.35;;;33.60;45.40;;;;;;5098739;27;20023;-63
2023/09/09 12:43:35;;;;;;;6.55;3.70;;;33.70;45.00;;;;;;5101092;27;20023;-64